Time;durP1;ratioP1;P1;durP2;ratioP2;P2;SDS_P1;SDS_P2;PMS_P1;PMS_P2;Temp;Humidity;BMP_temperature;BMP_pressure;BME280_temperature;BME280_humidity;BME280_pressure;Samples;Min_cycle;Max_cycle;Signal;HPM_P1;HPM_P2
2024/01/22 00:01:07;;;;;;;;;51.75;40.25;;;;;-143.90;100.00;77825.56;4893732;28;101871;-74
2024/01/22 00:03:33;;;;;;;;;50.33;39.00;;;;;-143.90;100.00;77825.56;4889080;28;101594;-74
2024/01/22 00:06:00;;;;;;;;;46.33;32.00;;;;;-143.90;100.00;77817.28;4879832;28;103872;-74
2024/01/22 00:08:27;;;;;;;;;31.00;25.00;;;;;-143.90;100.00;77811.09;4878091;28;103359;-74
2024/01/22 00:10:53;;;;;;;;;23.00;20.00;;;;;-143.90;100.00;77804.88;4896167;28;103436;-74
2024/01/22 00:13:20;;;;;;;;;16.67;14.67;;;;;-143.90;100.00;77792.47;4892306;28;101811;-74
2024/01/22 00:15:47;;;;;;;;;10.67;10.00;;;;;-143.90;100.00;77798.69;4888768;28;101675;-74
2024/01/22 00:18:13;;;;;;;;;13.00;11.00;;;;;-143.90;100.00;77794.53;4888992;28;103288;-73
2024/01/22 00:20:40;;;;;;;;;9.33;7.67;;;;;-143.90;100.00;77786.25;4879651;28;102757;-74
2024/01/22 00:23:07;;;;;;;;;10.67;7.67;;;;;-143.90;100.00;77790.41;4886639;28;101921;-73
2024/01/22 00:25:33;;;;;;;;;12.33;10.00;;;;;-143.90;100.00;77800.75;4884470;28;101813;-73
2024/01/22 00:28:00;;;;;;;;;12.33;10.00;;;;;-143.90;100.00;77794.53;4891237;28;108254;-73
2024/01/22 00:30:27;;;;;;;;;10.00;8.00;;;;;-143.90;100.00;77802.81;4876566;28;102016;-74
2024/01/22 00:32:53;;;;;;;;;8.67;8.00;;;;;-143.90;100.00;77798.69;4884559;28;101807;-74
2024/01/22 00:35:20;;;;;;;;;14.33;6.33;;;;;-143.90;100.00;77800.75;4889354;28;101728;-73
2024/01/22 00:37:47;;;;;;;;;21.33;16.00;;;;;-143.90;100.00;77802.81;4886058;28;103548;-74
2024/01/22 00:40:13;;;;;;;;;13.00;8.33;;;;;-143.90;100.00;77804.88;4887166;28;101633;-72
2024/01/22 00:42:43;;;;;;;;;26.67;23.00;;;;;-143.90;100.00;77800.75;4860315;28;101747;-73
2024/01/22 00:45:10;;;;;;;;;22.00;16.00;;;;;-143.90;100.00;77780.06;4883870;28;102623;-74
2024/01/22 00:47:37;;;;;;;;;14.00;13.00;;;;;-143.90;100.00;77778.00;4882749;28;103293;-73
2024/01/22 00:50:04;;;;;;;;;13.00;11.00;;;;;-143.90;100.00;77780.06;4882222;28;104747;-74
2024/01/22 00:52:31;;;;;;;;;16.00;13.33;;;;;-143.90;100.00;77780.06;4877116;28;102973;-74
2024/01/22 00:54:58;;;;;;;;;17.67;14.67;;;;;-143.90;100.00;77790.41;4866022;28;101670;-73
2024/01/22 00:57:24;;;;;;;;;13.33;10.00;;;;;-143.90;100.00;77794.53;4882561;28;103471;-74
2024/01/22 00:59:51;;;;;;;;;10.33;10.33;;;;;-143.90;100.00;77798.69;4882447;28;101757;-74
2024/01/22 01:02:18;;;;;;;;;10.00;7.67;;;;;-143.90;100.00;77792.47;4878801;28;101508;-74
2024/01/22 01:04:44;;;;;;;;;17.67;13.00;;;;;-143.90;100.00;77802.81;4861954;28;101905;-74
2024/01/22 01:07:12;;;;;;;;;13.00;8.67;;;;;-143.90;100.00;77796.59;4880315;28;103058;-74
2024/01/22 01:09:39;;;;;;;;;8.67;7.00;;;;;-143.90;100.00;77784.19;4862813;28;102269;-74
2024/01/22 01:12:06;;;;;;;;;6.33;5.00;;;;;-143.90;100.00;77782.13;4870967;28;101465;-74
2024/01/22 01:14:33;;;;;;;;;8.00;7.00;;;;;-143.90;100.00;77782.13;4876785;28;102089;-73
2024/01/22 01:17:00;;;;;;;;;7.00;6.67;;;;;-143.90;100.00;77786.25;4884457;28;107890;-74
2024/01/22 01:19:26;;;;;;;;;12.67;10.33;;;;;-143.90;100.00;77790.41;4880445;28;102019;-73
2024/01/22 01:21:53;;;;;;;;;7.67;7.00;;;;;-143.90;100.00;77788.34;4879689;28;101678;-73
2024/01/22 01:24:20;;;;;;;;;5.00;5.00;;;;;-143.90;100.00;77792.47;4878203;28;103163;-74
2024/01/22 01:26:47;;;;;;;;;10.00;7.67;;;;;-143.90;100.00;77802.81;4880850;28;103421;-72
2024/01/22 01:29:14;;;;;;;;;9.00;6.67;;;;;-143.90;100.00;77798.69;4876592;28;103270;-74
2024/01/22 01:31:40;;;;;;;;;8.33;7.67;;;;;-143.90;100.00;77790.41;4876530;28;101603;-74
2024/01/22 01:34:07;;;;;;;;;12.67;8.33;;;;;-143.90;100.00;77786.25;4883598;28;101784;-74
2024/01/22 01:36:34;;;;;;;;;8.00;8.00;;;;;-143.90;100.00;77773.84;4873017;28;103486;-74
2024/01/22 01:39:01;;;;;;;;;13.67;11.00;;;;;-143.90;99.46;77769.72;4868652;28;101721;-73
2024/01/22 01:41:27;;;;;;;;;10.67;8.33;;;;;-143.90;99.76;77761.44;4883271;28;101635;-73
2024/01/22 01:43:54;;;;;;;;;12.33;10.67;;;;;-143.90;98.42;77753.16;4886106;28;103205;-73
2024/01/22 01:46:21;;;;;;;;;16.33;8.00;;;;;-143.90;97.32;77738.69;4895033;28;103412;-73
2024/01/22 01:48:49;;;;;;;;;10.00;8.00;;;;;-143.90;97.60;77726.28;4905741;28;103145;-73
2024/01/22 01:51:16;;;;;;;;;7.33;7.33;;;;;-143.90;97.54;77715.94;4895317;28;101720;-74
2024/01/22 01:53:46;;;;;;;;;14.00;10.00;;;;;-143.90;96.66;77707.66;4907895;28;101647;-74
2024/01/22 01:56:13;;;;;;;;;13.00;11.00;;;;;-143.90;96.57;77691.09;4889341;28;103828;-73
2024/01/22 01:58:40;;;;;;;;;14.00;8.00;;;;;-143.90;96.04;77686.97;4885761;28;101968;-73
2024/01/22 02:01:07;;;;;;;;;13.00;10.00;;;;;-143.90;96.05;77682.81;4908437;28;102156;-74
2024/01/22 02:03:33;;;;;;;;;10.00;7.67;;;;;-143.90;95.23;77678.69;4904670;28;101912;-74
2024/01/22 02:06:01;;;;;;;;;13.33;10.33;;;;;-143.90;95.27;77670.41;4891705;28;109137;-74
2024/01/22 02:08:28;;;;;;;;;8.00;7.33;;;;;-143.90;73.68;77674.56;4898649;28;101705;-73
2024/01/22 02:10:54;;;;;;;;;13.33;12.33;;;;;-143.90;65.71;77662.13;4908303;28;104066;-73
2024/01/22 02:13:21;;;;;;;;;16.33;11.00;;;;;-143.90;65.50;77653.88;4912715;28;103536;-73
2024/01/22 02:15:47;;;;;;;;;11.00;8.00;;;;;-143.90;65.22;77643.53;4907583;28;103570;-73
2024/01/22 02:18:14;;;;;;;;;17.33;11.67;;;;;-143.90;65.73;77639.38;4903815;28;101900;-73
2024/01/22 02:20:41;;;;;;;;;8.33;7.67;;;;;-143.90;65.37;77633.19;4897798;28;101699;-74
2024/01/22 02:23:08;;;;;;;;;15.33;10.67;;;;;-143.90;65.68;77633.19;4911788;28;101814;-71
2024/01/22 02:25:34;;;;;;;;;10.33;9.33;;;;;-143.90;64.99;77637.31;4897259;28;103610;-73
2024/01/22 02:28:01;;;;;;;;;7.33;7.33;;;;;-143.90;65.00;77633.19;4915291;28;101557;-73
2024/01/22 02:30:28;;;;;;;;;10.00;9.33;;;;;-143.90;64.09;77633.19;4898109;28;101547;-74
2024/01/22 02:32:54;;;;;;;;;12.00;5.67;;;;;-143.90;64.28;77624.91;4891399;28;104746;-73
2024/01/22 02:35:21;;;;;;;;;10.00;8.67;;;;;-143.90;64.11;77629.03;4903587;28;103124;-73
2024/01/22 02:37:48;;;;;;;;;11.00;7.00;;;;;-143.90;64.58;77633.19;4906941;28;102069;-73
2024/01/22 02:40:16;;;;;;;;;8.00;5.00;;;;;-143.90;64.14;77635.25;4888151;28;101959;-72
2024/01/22 02:42:43;;;;;;;;;12.33;8.00;;;;;-143.90;63.95;77635.25;4885220;28;102084;-73
2024/01/22 02:45:10;;;;;;;;;10.67;10.00;;;;;-143.90;62.57;77637.31;4909187;28;103600;-75
2024/01/22 02:47:37;;;;;;;;;17.00;13.33;;;;;-143.90;62.01;77626.97;4908573;28;103855;-74
2024/01/22 02:50:04;;;;;;;;;14.00;8.00;;;;;-143.90;61.42;77618.69;4894491;28;102848;-73
2024/01/22 02:52:31;;;;;;;;;21.00;12.33;;;;;-143.90;61.60;77608.34;4900471;28;103701;-73
2024/01/22 02:54:57;;;;;;;;;10.33;9.33;;;;;-143.90;60.55;77612.50;4893559;28;103582;-73
2024/01/22 02:57:24;;;;;;;;;13.67;9.33;;;;;-143.90;60.80;77600.09;4907523;28;102076;-73
2024/01/22 02:59:51;;;;;;;;;10.33;9.33;;;;;-143.90;60.80;77595.94;4912852;28;101710;-73
2024/01/22 03:02:17;;;;;;;;;13.00;12.33;;;;;-143.90;60.15;77593.88;4892318;28;102492;-74
2024/01/22 03:04:44;;;;;;;;;13.00;10.00;;;;;-143.90;60.83;77587.66;4883284;28;103658;-73
2024/01/22 03:07:11;;;;;;;;;7.33;7.00;;;;;-143.90;60.49;77579.41;4907979;28;102161;-73
2024/01/22 03:09:38;;;;;;;;;10.00;8.00;;;;;-143.90;59.87;77581.47;4908517;28;104151;-73
2024/01/22 03:12:05;;;;;;;;;10.00;8.00;;;;;-143.90;59.78;77569.06;4905448;28;101736;-73
2024/01/22 03:14:32;;;;;;;;;11.67;8.00;;;;;-143.90;58.88;77575.25;4904792;28;105305;-73
2024/01/22 03:16:59;;;;;;;;;7.00;7.00;;;;;-143.90;58.60;77571.13;4894082;28;102166;-74
2024/01/22 03:19:26;;;;;;;;;7.00;7.00;;;;;-143.90;57.94;77571.13;4894776;28;101623;-74
2024/01/22 03:21:52;;;;;;;;;4.67;4.00;;;;;-143.90;58.04;77564.91;4890654;28;102676;-74
2024/01/22 03:24:20;;;;;;;;;6.33;4.00;;;;;-143.90;58.54;77558.72;4900387;28;104864;-73
2024/01/22 03:26:47;;;;;;;;;4.00;4.00;;;;;-143.90;59.41;77558.72;4881471;28;101968;-73
2024/01/22 03:29:13;;;;;;;;;4.00;2.67;;;;;-143.90;60.43;77569.06;4891967;28;101941;-73
2024/01/22 03:31:40;;;;;;;;;2.00;2.00;;;;;-143.90;60.32;77562.84;4906481;28;101772;-73
2024/01/22 03:34:07;;;;;;;;;0.67;0.67;;;;;-143.90;61.13;77564.91;4910504;28;102512;-72
2024/01/22 03:36:35;;;;;;;;;4.00;2.67;;;;;-143.90;60.15;77571.13;4902912;28;101556;-73
2024/01/22 03:39:02;;;;;;;;;4.67;3.33;;;;;-143.90;61.27;77583.53;4908525;28;101869;-73
2024/01/22 03:41:29;;;;;;;;;1.67;1.00;;;;;-143.90;61.36;77579.41;4907946;28;101611;-73
2024/01/22 03:43:55;;;;;;;;;4.67;4.00;;;;;-143.90;61.04;77583.53;4889664;28;103850;-73
2024/01/22 03:46:22;;;;;;;;;2.00;2.00;;;;;-143.90;61.87;77587.66;4902987;28;102444;-72
2024/01/22 03:48:48;;;;;;;;;1.00;1.00;;;;;-143.90;61.31;77591.81;4905930;28;101647;-72
2024/01/22 03:51:15;;;;;;;;;2.00;1.00;;;;;-143.90;61.82;77591.81;4911322;28;101891;-73
2024/01/22 03:53:42;;;;;;;;;3.33;1.00;;;;;-143.90;61.06;77585.59;4890424;28;103519;-73
2024/01/22 03:56:09;;;;;;;;;2.00;1.00;;;;;-143.90;60.52;77587.66;4910350;28;101787;-74
2024/01/22 03:58:38;;;;;;;;;1.00;1.00;;;;;-143.90;59.96;77583.53;4895525;28;101885;-73
2024/01/22 04:01:05;;;;;;;;;0.00;0.00;;;;;-143.90;60.87;77587.66;4909463;28;101601;-73
2024/01/22 04:03:32;;;;;;;;;1.67;1.00;;;;;-143.90;60.25;77587.66;4912183;28;108917;-74
2024/01/22 04:05:59;;;;;;;;;7.00;5.00;;;;;-143.90;58.21;77604.22;4888785;28;102863;-73
2024/01/22 04:08:26;;;;;;;;;10.00;8.00;;;;;-143.90;58.69;77604.22;4896021;28;102522;-74
2024/01/22 04:10:53;;;;;;;;;18.33;15.33;;;;;-143.90;58.42;77604.22;4880769;28;101536;-72
2024/01/22 04:13:19;;;;;;;;;17.00;14.67;;;;;-143.90;58.21;77608.34;4906732;28;102811;-72
2024/01/22 04:15:55;;;;;;;;;22.00;19.67;;;;;-143.90;58.35;77616.63;4903730;28;101816;-73
2024/01/22 04:18:21;;;;;;;;;13.00;11.00;;;;;-143.90;59.15;77604.22;4897468;28;101674;-73
2024/01/22 04:20:48;;;;;;;;;17.00;15.33;;;;;-143.90;59.03;77600.09;4903849;28;101700;-74
2024/01/22 04:23:15;;;;;;;;;23.67;19.00;;;;;-143.90;59.38;77585.59;4907318;28;104621;-73
2024/01/22 04:25:41;;;;;;;;;11.00;10.67;;;;;-143.90;60.34;77585.59;4908007;28;101746;-74
2024/01/22 04:28:08;;;;;;;;;12.67;10.00;;;;;-143.90;58.94;77591.81;4905435;28;101495;-73
2024/01/22 04:30:35;;;;;;;;;13.00;11.00;;;;;-143.90;58.12;77589.75;4903991;28;101878;-73
2024/01/22 04:33:06;;;;;;;;;11.00;9.67;;;;;-143.90;58.53;77589.75;4906512;28;108190;-74
2024/01/22 04:35:33;;;;;;;;;9.67;7.67;;;;;-143.90;58.60;77575.25;4887561;28;101798;-74
2024/01/22 04:37:59;;;;;;;;;16.00;13.00;;;;;-143.90;56.75;77581.47;4907058;28;103157;-73
2024/01/22 04:40:26;;;;;;;;;9.33;8.67;;;;;-143.90;57.01;77571.13;4901420;28;103420;-73
2024/01/22 04:42:53;;;;;;;;;10.00;10.00;;;;;-143.90;56.09;77575.25;4892647;28;103448;-74
2024/01/22 04:45:19;;;;;;;;;9.67;8.33;;;;;-143.90;56.71;77562.84;4885606;28;103104;-73
2024/01/22 04:47:46;;;;;;;;;16.67;15.33;;;;;-143.90;56.83;77564.91;4882714;28;102490;-73
2024/01/22 04:50:13;;;;;;;;;16.67;11.00;;;;;-143.90;56.76;77558.72;4893306;28;101635;-73
2024/01/22 04:52:40;;;;;;;;;8.33;7.33;;;;;-143.90;55.52;77554.56;4877902;28;103749;-73
2024/01/22 04:55:07;;;;;;;;;15.33;13.00;;;;;-143.90;55.41;77562.84;4886028;28;101934;-73
2024/01/22 04:57:45;;;;;;;;;11.33;7.67;;;;;-143.90;56.59;77550.44;4888995;28;102107;-73
2024/01/22 05:00:12;;;;;;;;;10.00;9.67;;;;;-143.90;56.18;77548.38;4892793;28;101953;-74
2024/01/22 05:02:40;;;;;;;;;10.67;7.67;;;;;-143.90;56.04;77554.56;4872682;28;102966;-73
2024/01/22 05:05:07;;;;;;;;;11.00;10.67;;;;;-143.90;55.92;77562.84;4888767;28;103195;-74
2024/01/22 05:07:34;;;;;;;;;11.33;9.67;;;;;-143.90;56.95;77550.44;4892325;28;101948;-73
2024/01/22 05:10:09;;;;;;;;;10.33;7.00;;;;;-143.90;56.75;77554.56;4897334;28;101787;-73
2024/01/22 05:12:40;;;;;;;;;8.00;7.00;;;;;-143.90;57.07;77546.28;4878178;28;107627;-73
2024/01/22 05:15:07;;;;;;;;;5.67;4.33;;;;;-143.90;56.72;77542.16;4888431;28;103155;-73
2024/01/22 05:17:33;;;;;;;;;2.33;1.00;;;;;-143.90;56.57;77533.88;4895578;28;102043;-74
2024/01/22 05:20:00;;;;;;;;;2.33;2.33;;;;;-143.90;56.61;77521.47;4890027;28;103554;-73
2024/01/22 05:22:27;;;;;;;;;4.00;2.67;;;;;-143.90;57.24;77521.47;4886298;28;103465;-73
2024/01/22 05:24:54;;;;;;;;;4.00;3.33;;;;;-143.90;56.82;77517.34;4887022;28;101573;-73
2024/01/22 05:27:20;;;;;;;;;8.67;7.00;;;;;-143.90;57.65;77517.34;4891089;28;103330;-73
2024/01/22 05:29:47;;;;;;;;;11.00;10.00;;;;;-143.90;56.53;77527.69;4891446;28;101961;-72
2024/01/22 05:32:14;;;;;;;;;9.33;8.67;;;;;-143.90;57.00;77511.13;4901890;28;103666;-72
2024/01/22 05:34:40;;;;;;;;;7.33;7.33;;;;;-143.90;56.69;77517.34;4883205;28;101763;-73
2024/01/22 05:37:07;;;;;;;;;8.33;5.00;;;;;-143.90;57.28;77521.47;4889009;28;101693;-73
2024/01/22 05:39:33;;;;;;;;;10.00;7.00;;;;;-143.90;56.06;77517.34;4898433;28;101624;-74
2024/01/22 05:42:00;;;;;;;;;11.67;7.00;;;;;-143.90;56.99;77517.34;4889212;28;103557;-74
2024/01/22 05:44:27;;;;;;;;;12.33;8.00;;;;;-143.90;57.58;77513.19;4893350;28;101769;-72
2024/01/22 05:46:54;;;;;;;;;7.00;5.00;;;;;-143.90;56.38;77517.34;4905614;28;101988;-73
2024/01/22 05:49:20;;;;;;;;;7.67;7.33;;;;;-143.90;56.73;77519.41;4911193;28;101956;-73
2024/01/22 05:51:47;;;;;;;;;8.00;4.00;;;;;-143.90;57.14;77513.19;4912813;28;103377;-73
2024/01/22 05:54:15;;;;;;;;;5.67;4.33;;;;;-143.90;57.08;77511.13;4908165;28;101584;-74
2024/01/22 05:56:42;;;;;;;;;7.33;4.33;;;;;-143.90;55.60;77509.06;4905875;28;104197;-73
2024/01/22 05:59:08;;;;;;;;;2.00;1.33;;;;;-143.90;56.36;77502.84;4907504;28;101911;-73
2024/01/22 06:01:35;;;;;;;;;4.67;4.00;;;;;-143.90;57.53;77496.66;4911454;28;103898;-73
2024/01/22 06:04:04;;;;;;;;;4.33;4.00;;;;;-143.90;56.48;77496.66;4908442;28;102202;-73
2024/01/22 06:06:31;;;;;;;;;4.33;4.33;;;;;-143.90;55.48;77498.72;4905798;28;101546;-73
2024/01/22 06:08:58;;;;;;;;;4.00;2.00;;;;;-143.90;57.33;77488.38;4914602;28;101573;-72
2024/01/22 06:11:26;;;;;;;;;7.00;2.00;;;;;-143.90;57.22;77480.09;4906530;28;103726;-72
2024/01/22 06:13:53;;;;;;;;;1.67;1.67;;;;;-143.90;56.39;77471.81;4908874;28;101677;-73
2024/01/22 06:16:28;;;;;;;;;4.33;4.00;;;;;-143.90;55.80;77463.56;4904244;28;101917;-73
2024/01/22 06:18:54;;;;;;;;;2.33;2.33;;;;;-143.90;55.89;77453.22;4916160;28;101627;-74
2024/01/22 06:21:21;;;;;;;;;2.33;1.00;;;;;-143.90;55.82;77449.06;4887890;28;103522;-73
2024/01/22 06:23:48;;;;;;;;;1.00;1.00;;;;;-143.90;55.56;77442.88;4906947;28;101780;-73
2024/01/22 06:26:17;;;;;;;;;2.00;1.00;;;;;-143.90;54.92;77440.78;4892708;28;102017;-73
2024/01/22 06:28:44;;;;;;;;;3.33;2.00;;;;;-143.90;55.13;77430.47;4908403;28;101785;-73
2024/01/22 06:31:10;;;;;;;;;1.00;1.00;;;;;-143.90;55.68;77428.38;4906494;28;105973;-73
2024/01/22 06:33:37;;;;;;;;;7.00;2.00;;;;;-143.90;54.93;77426.31;4906722;28;101721;-73
2024/01/22 06:36:06;;;;;;;;;2.67;2.00;;;;;-143.90;54.63;77405.63;4916958;28;101563;-73
2024/01/22 06:38:34;;;;;;;;;2.00;2.00;;;;;-143.90;53.92;77405.63;4907918;28;101720;-73
2024/01/22 06:41:00;;;;;;;;;7.00;4.00;;;;;-143.90;55.24;77395.28;4885698;28;106498;-73
2024/01/22 06:43:27;;;;;;;;;3.33;2.00;;;;;-143.90;54.99;77399.44;4906906;28;101794;-73
2024/01/22 06:45:54;;;;;;;;;7.00;5.00;;;;;-143.90;55.42;77393.22;4904413;28;102895;-73
2024/01/22 06:48:21;;;;;;;;;5.00;4.00;;;;;-143.90;54.99;77389.09;4906933;28;102978;-73
2024/01/22 06:50:48;;;;;;;;;4.00;4.00;;;;;-143.90;54.51;77384.94;4907772;28;103070;-73
2024/01/22 06:53:14;;;;;;;;;5.00;5.00;;;;;-143.90;55.08;77378.75;4896052;28;101675;-73
2024/01/22 06:55:41;;;;;;;;;7.00;5.00;;;;;-143.90;53.71;77372.53;4888459;28;102908;-73
2024/01/22 06:58:08;;;;;;;;;8.67;5.67;;;;;-143.90;54.56;77364.25;4909465;28;101745;-73
2024/01/22 07:00:36;;;;;;;;;5.67;5.00;;;;;-143.90;53.73;77347.72;4908583;28;103857;-74
2024/01/22 07:03:04;;;;;;;;;5.00;4.67;;;;;-143.90;53.18;77347.72;4905053;28;102064;-74
2024/01/22 07:05:32;;;;;;;;;4.00;3.33;;;;;-143.90;53.73;77335.31;4912205;28;104273;-74
2024/01/22 07:07:59;;;;;;;;;2.00;2.00;;;;;-143.90;52.29;77327.03;4911825;28;101973;-73
2024/01/22 07:10:25;;;;;;;;;6.67;5.00;;;;;-143.90;53.51;77310.47;4902090;28;103633;-73
2024/01/22 07:12:52;;;;;;;;;5.00;2.00;;;;;-143.90;54.17;77302.22;4906497;28;101770;-74
2024/01/22 07:15:19;;;;;;;;;2.00;2.00;;;;;-143.90;53.50;77293.94;4891154;28;101516;-73
2024/01/22 07:17:46;;;;;;;;;2.00;2.00;;;;;-143.90;52.79;77291.88;4905878;28;101695;-74
2024/01/22 07:20:16;;;;;;;;;3.33;1.67;;;;;-143.90;52.28;77277.38;4901416;28;103787;-73
2024/01/22 07:22:44;;;;;;;;;4.33;2.67;;;;;-143.90;51.76;77260.84;4903454;28;101693;-73
2024/01/22 07:25:14;;;;;;;;;4.00;4.00;;;;;-143.90;51.11;77250.50;4887439;28;103927;-73
2024/01/22 07:27:42;;;;;;;;;2.67;2.00;;;;;-143.90;50.11;77225.66;4889010;28;101848;-73
2024/01/22 07:30:11;;;;;;;;;5.67;5.00;;;;;-143.90;48.67;77213.25;4898721;28;103737;-74
2024/01/22 07:32:40;;;;;;;;;11.67;8.00;;;;;-143.90;49.19;77198.78;4904161;28;101697;-74
2024/01/22 07:35:13;;;;;;;;;10.33;8.67;;;;;-143.90;48.35;77190.50;4905103;28;102136;-73
2024/01/22 07:37:42;;;;;;;;;18.00;14.00;;;;;-143.90;48.40;77173.97;4894548;28;101883;-74
2024/01/22 07:40:09;;;;;;;;;21.67;15.00;;;;;-143.90;46.93;77157.41;4899977;28;103657;-74
2024/01/22 07:42:38;;;;;;;;;33.00;27.00;;;;;-143.90;47.52;77136.72;4880537;28;102404;-73
2024/01/22 07:45:06;;;;;;;;;22.67;18.00;;;;;-143.90;47.04;77128.47;4910685;28;102004;-74
2024/01/22 07:47:34;;;;;;;;;16.67;16.33;;;;;-143.90;47.76;77118.13;4874980;28;102094;-74
2024/01/22 07:50:05;;;;;;;;;19.00;17.00;;;;;-143.90;48.72;77095.38;4897426;28;103393;-73
2024/01/22 07:52:33;;;;;;;;;18.33;15.00;;;;;-143.90;48.27;77080.88;4901670;28;102348;-73
2024/01/22 07:55:01;;;;;;;;;17.33;16.33;;;;;-143.90;46.45;77066.41;4910582;28;106193;-74
2024/01/22 07:57:28;;;;;;;;;20.67;14.00;;;;;-143.90;46.73;77049.84;4909641;28;102443;-73
2024/01/22 07:59:55;;;;;;;;;25.33;21.33;;;;;-143.90;46.01;77035.38;4905024;28;103520;-73
2024/01/22 08:02:22;;;;;;;;;19.33;11.67;;;;;-143.90;45.60;77012.63;4907088;28;101842;-74
2024/01/22 08:04:50;;;;;;;;;14.67;12.00;;;;;-143.90;44.97;76987.81;4903619;28;101378;-74
2024/01/22 08:07:19;;;;;;;;;14.67;11.67;;;;;-143.90;44.39;76954.72;4913761;28;104379;-74
2024/01/22 08:09:46;;;;;;;;;19.67;14.00;;;;;-143.90;45.36;76934.03;4907985;28;103374;-74
2024/01/22 08:12:14;;;;;;;;;16.00;15.00;;;;;-143.90;43.52;76915.41;4911704;28;101652;-73
2024/01/22 08:14:40;;;;;;;;;14.33;12.00;;;;;-143.90;42.76;76886.47;4902277;28;102726;-72
2024/01/22 08:17:07;;;;;;;;;11.67;10.33;;;;;-143.90;43.55;76857.50;4895109;28;101778;-74
2024/01/22 08:19:34;;;;;;;;;30.00;16.33;;;;;-143.90;42.23;76840.97;4911184;28;103544;-73
2024/01/22 08:22:02;;;;;;;;;19.00;16.67;;;;;-143.90;41.00;76818.22;4909147;28;102048;-73
2024/01/22 08:24:30;;;;;;;;;24.00;21.33;;;;;-143.90;41.68;76797.53;4905458;28;101562;-73
2024/01/22 08:26:57;;;;;;;;;24.33;21.00;;;;;-143.90;40.94;76776.84;4898719;28;104175;-74
2024/01/22 08:29:24;;;;;;;;;17.00;15.00;;;;;-143.90;42.21;76768.56;4911630;28;103399;-73
2024/01/22 08:31:51;;;;;;;;;21.67;17.00;;;;;-143.90;41.16;76758.22;4892221;28;101824;-73
2024/01/22 08:34:17;;;;;;;;;30.67;23.00;;;;;-143.90;41.64;76760.28;4905227;28;101628;-73
2024/01/22 08:36:44;;;;;;;;;33.00;27.00;;;;;-143.90;41.13;76754.09;4905875;28;103671;-74
2024/01/22 08:39:11;;;;;;;;;38.33;29.67;;;;;-143.90;41.36;76752.03;4906121;28;105143;-74
2024/01/22 08:41:38;;;;;;;;;24.50;18.75;;;;;-143.90;40.62;76737.53;4911468;28;101593;-74
2024/01/22 08:44:05;;;;;;;;;42.00;35.33;;;;;-143.90;41.79;76743.75;4909675;28;101771;-73
2024/01/22 08:46:33;;;;;;;;;40.00;30.67;;;;;-143.90;40.42;76727.22;4907226;28;101647;-74
2024/01/22 08:48:59;;;;;;;;;67.67;45.67;;;;;-143.90;40.87;76702.38;4884099;28;105066;-74
2024/01/22 08:51:28;;;;;;;;;44.67;34.00;;;;;-143.90;39.92;76681.72;4893616;28;101468;-72
2024/01/22 08:53:54;;;;;;;;;65.33;45.67;;;;;-143.90;39.48;76667.22;4910200;28;101798;-72
2024/01/22 08:56:21;;;;;;;;;77.67;50.67;;;;;-143.90;40.04;76644.47;4905659;28;101667;-73
2024/01/22 08:58:48;;;;;;;;;57.67;44.00;;;;;-143.90;39.62;76611.38;4906226;28;103482;-75
2024/01/22 09:01:15;;;;;;;;;64.67;48.00;;;;;-143.90;41.13;76603.13;4887868;28;101818;-73
2024/01/22 09:03:42;;;;;;;;;73.33;49.33;;;;;-143.90;40.07;76574.16;4913826;28;103244;-73
2024/01/22 09:06:09;;;;;;;;;64.67;48.00;;;;;-143.90;39.16;76565.88;4907518;28;101724;-72
2024/01/22 09:08:36;;;;;;;;;93.67;63.67;;;;;-143.90;39.61;76567.97;4883042;28;102971;-73
2024/01/22 09:11:03;;;;;;;;;97.50;64.50;;;;;-143.90;39.54;76557.63;4910012;28;101746;-73
2024/01/22 09:13:30;;;;;;;;;79.00;53.67;;;;;-143.90;39.76;76565.88;4888421;28;102114;-73
2024/01/22 09:15:57;;;;;;;;;83.67;58.00;;;;;-143.90;39.51;76549.34;4913462;28;101542;-74
2024/01/22 09:18:25;;;;;;;;;85.67;56.33;;;;;-143.90;38.63;76553.47;4888372;28;102970;-73
2024/01/22 09:20:53;;;;;;;;;89.67;60.67;;;;;-143.90;38.66;76526.59;4890799;28;102270;-74
2024/01/22 09:23:20;;;;;;;;;79.67;57.67;;;;;-143.90;38.70;76524.53;4908813;28;101726;-73
2024/01/22 09:25:47;;;;;;;;;83.00;54.33;;;;;-143.90;38.22;76512.13;4909542;28;101454;-74
2024/01/22 09:28:19;;;;;;;;;68.00;51.67;;;;;-143.90;36.91;76503.84;4911010;28;103722;-74
2024/01/22 09:30:45;;;;;;;;;66.33;49.00;;;;;-143.90;37.51;76487.31;4896867;28;101627;-74
2024/01/22 09:33:12;;;;;;;;;66.33;47.67;;;;;-143.90;37.71;76460.41;4890318;28;101645;-74
2024/01/22 09:35:40;;;;;;;;;73.33;49.67;;;;;-143.90;36.66;76441.81;4910205;28;102119;-74
2024/01/22 09:38:08;;;;;;;;;44.00;37.67;;;;;-143.90;36.10;76421.13;4906848;28;103421;-74
2024/01/22 09:40:34;;;;;;;;;30.75;27.50;;;;;-143.90;36.21;76400.44;4903137;28;103557;-74
2024/01/22 09:43:06;;;;;;;;;21.50;19.50;;;;;-143.90;35.11;76367.34;4908154;28;103876;-74
2024/01/22 09:45:34;;;;;;;;;28.50;23.75;;;;;-143.90;34.17;76359.09;4883714;28;101590;-74
2024/01/22 09:48:02;;;;;;;;;18.75;12.25;;;;;-143.90;33.63;76354.94;4908954;28;103519;-74
2024/01/22 09:50:29;;;;;;;;;13.50;10.25;;;;;-143.90;32.26;76338.41;4899973;23;101997;-71
2024/01/22 09:53:00;;;;;;;;;10.25;8.00;;;;;-143.90;32.51;76338.41;4847478;28;102458;-71
2024/01/22 09:55:27;;;;;;;;;9.00;7.00;;;;;-143.90;32.36;76330.13;4852753;28;103848;-70
2024/01/22 09:57:58;;;;;;;;;11.00;10.50;;;;;-143.90;33.20;76348.75;4847483;28;103592;-70
2024/01/22 10:00:26;;;;;;;;;8.50;7.50;;;;;-143.90;33.45;76332.19;4843374;28;101924;-72
2024/01/22 10:02:55;;;;;;;;;12.25;8.00;;;;;-143.90;32.95;76332.19;4847615;28;102296;-71
2024/01/22 10:05:22;;;;;;;;;7.00;5.25;;;;;-143.90;33.16;76321.84;4852198;28;102564;-71
2024/01/22 10:07:49;;;;;;;;;12.00;8.00;;;;;-143.90;32.79;76326.00;4847060;28;104118;-71
2024/01/22 10:10:16;;;;;;;;;7.75;7.00;;;;;-143.90;33.68;76332.19;4849860;28;101880;-70
2024/01/22 10:13:07;;;;;;;;;11.50;7.50;;;;;-143.90;33.66;76330.13;4822415;28;103767;-71
2024/01/22 10:15:35;;;;;;;;;10.75;10.25;;;;;-143.90;32.73;76328.06;4850803;28;102246;-71
2024/01/22 10:18:17;;;;;;;;;14.00;10.50;;;;;-143.90;33.07;76330.13;4847466;28;103960;-71
2024/01/22 10:20:46;;;;;;;;;12.50;12.00;;;;;-143.90;33.42;76317.72;4837667;28;101995;-71
2024/01/22 10:23:16;;;;;;;;;21.25;11.50;;;;;-143.90;32.89;76317.72;4849036;28;103781;-70
2024/01/22 10:25:43;;;;;;;;;12.00;9.50;;;;;-143.90;32.92;76288.78;4845962;28;102320;-70
2024/01/22 10:28:18;;;;;;;;;12.00;8.25;;;;;-143.90;32.52;76284.63;4849041;28;103974;-72
2024/01/22 10:31:00;;;;;;;;;7.50;7.25;;;;;-143.90;32.42;76276.38;4837039;28;101918;-71
2024/01/22 10:33:27;;;;;;;;;10.00;7.25;;;;;-143.90;32.58;76272.22;4849001;28;102117;-70
2024/01/22 10:35:55;;;;;;;;;7.00;7.00;;;;;-143.90;32.30;76255.69;4847845;28;102595;-71
2024/01/22 10:38:23;;;;;;;;;7.00;5.75;;;;;-143.90;32.67;76239.13;4848087;28;104020;-72
2024/01/22 10:40:50;;;;;;;;;7.50;6.00;;;;;-143.90;32.17;76212.25;4843586;28;102036;-71
2024/01/22 10:43:23;;;;;;;;;10.00;6.75;;;;;-143.90;32.03;76199.84;4847782;28;102650;-72
2024/01/22 10:45:51;;;;;;;;;11.00;10.00;;;;;-143.90;32.44;76197.78;4850232;28;103175;-70
2024/01/22 10:48:22;;;;;;;;;9.75;9.00;;;;;-143.90;32.00;76185.38;4846985;28;104138;-71
2024/01/22 10:51:07;;;;;;;;;11.00;11.00;;;;;-143.90;32.07;76179.16;4849281;28;102525;-71
2024/01/22 10:53:35;;;;;;;;;15.00;12.75;;;;;-143.90;32.27;76162.63;4849474;28;101990;-71
2024/01/22 10:56:04;;;;;;;;;12.50;11.00;;;;;-143.90;32.82;76164.69;4847915;28;102644;-70
2024/01/22 10:58:41;;;;;;;;;17.75;15.25;;;;;-143.90;32.90;76201.91;4841332;28;110128;-71
2024/01/22 11:01:19;;;;;;;;;15.00;11.75;;;;;-143.90;33.00;76189.50;4846113;28;102250;-71